sensor_id;sensor_type;location;lat;lon;timestamp;P1;durP1;ratioP1;P2;durP2;ratioP2
13832;SDS011;6987;19.472;-99.276;2023-04-07T00:00:54;36.55;;;25.98;;
13832;SDS011;6987;19.472;-99.276;2023-04-07T00:03:23;36.45;;;25.73;;
13832;SDS011;6987;19.472;-99.276;2023-04-07T00:05:52;37.17;;;26.83;;
13832;SDS011;6987;19.472;-99.276;2023-04-07T00:08:21;38.85;;;26.35;;
13832;SDS011;6987;19.472;-99.276;2023-04-07T00:10:50;29.77;;;21.70;;
13832;SDS011;6987;19.472;-99.276;2023-04-07T00:13:21;27.70;;;19.17;;
13832;SDS011;6987;19.472;-99.276;2023-04-07T00:15:51;25.60;;;17.98;;
13832;SDS011;6987;19.472;-99.276;2023-04-07T00:18:19;18.95;;;15.23;;
13832;SDS011;6987;19.472;-99.276;2023-04-07T00:20:48;19.52;;;14.27;;
13832;SDS011;6987;19.472;-99.276;2023-04-07T00:23:17;21.80;;;15.57;;
13832;SDS011;6987;19.472;-99.276;2023-04-07T00:25:47;18.70;;;14.57;;
13832;SDS011;6987;19.472;-99.276;2023-04-07T00:28:15;22.33;;;15.02;;
13832;SDS011;6987;19.472;-99.276;2023-04-07T00:30:46;20.65;;;15.15;;
13832;SDS011;6987;19.472;-99.276;2023-04-07T00:33:15;22.80;;;15.55;;
13832;SDS011;6987;19.472;-99.276;2023-04-07T00:35:44;18.58;;;14.50;;
13832;SDS011;6987;19.472;-99.276;2023-04-07T00:38:13;21.60;;;15.80;;
13832;SDS011;6987;19.472;-99.276;2023-04-07T00:40:42;21.88;;;16.70;;
13832;SDS011;6987;19.472;-99.276;2023-04-07T00:43:12;31.23;;;19.75;;
13832;SDS011;6987;19.472;-99.276;2023-04-07T00:45:40;27.40;;;19.25;;
13832;SDS011;6987;19.472;-99.276;2023-04-07T00:48:11;27.60;;;20.83;;
13832;SDS011;6987;19.472;-99.276;2023-04-07T00:50:40;27.88;;;19.83;;
13832;SDS011;6987;19.472;-99.276;2023-04-07T00:53:09;27.75;;;20.13;;
13832;SDS011;6987;19.472;-99.276;2023-04-07T00:55:38;25.58;;;19.67;;
13832;SDS011;6987;19.472;-99.276;2023-04-07T00:58:07;27.23;;;18.70;;
13832;SDS011;6987;19.472;-99.276;2023-04-07T01:00:40;26.85;;;18.83;;
13832;SDS011;6987;19.472;-99.276;2023-04-07T01:03:12;25.80;;;19.55;;
13832;SDS011;6987;19.472;-99.276;2023-04-07T01:05:45;25.23;;;18.23;;
13832;SDS011;6987;19.472;-99.276;2023-04-07T01:08:24;24.92;;;17.73;;
13832;SDS011;6987;19.472;-99.276;2023-04-07T01:10:59;27.17;;;18.38;;
13832;SDS011;6987;19.472;-99.276;2023-04-07T01:13:30;20.73;;;16.55;;
13832;SDS011;6987;19.472;-99.276;2023-04-07T01:16:02;22.13;;;17.02;;
13832;SDS011;6987;19.472;-99.276;2023-04-07T01:18:34;25.58;;;17.92;;
13832;SDS011;6987;19.472;-99.276;2023-04-07T01:21:05;30.50;;;20.58;;
13832;SDS011;6987;19.472;-99.276;2023-04-07T01:23:40;32.83;;;20.35;;
13832;SDS011;6987;19.472;-99.276;2023-04-07T01:26:16;28.85;;;20.83;;
13832;SDS011;6987;19.472;-99.276;2023-04-07T01:28:54;30.85;;;18.42;;
13832;SDS011;6987;19.472;-99.276;2023-04-07T01:31:26;28.65;;;19.00;;
13832;SDS011;6987;19.472;-99.276;2023-04-07T01:33:56;34.03;;;19.60;;
13832;SDS011;6987;19.472;-99.276;2023-04-07T01:36:26;24.02;;;18.92;;
13832;SDS011;6987;19.472;-99.276;2023-04-07T01:38:56;28.70;;;19.60;;
13832;SDS011;6987;19.472;-99.276;2023-04-07T01:41:26;31.55;;;19.20;;
13832;SDS011;6987;19.472;-99.276;2023-04-07T01:43:55;25.02;;;18.55;;
13832;SDS011;6987;19.472;-99.276;2023-04-07T01:46:26;29.77;;;20.17;;
13832;SDS011;6987;19.472;-99.276;2023-04-07T01:48:56;31.52;;;20.77;;
13832;SDS011;6987;19.472;-99.276;2023-04-07T01:51:25;31.30;;;19.83;;
13832;SDS011;6987;19.472;-99.276;2023-04-07T01:53:55;27.38;;;19.90;;
13832;SDS011;6987;19.472;-99.276;2023-04-07T01:56:25;27.02;;;19.83;;
13832;SDS011;6987;19.472;-99.276;2023-04-07T01:58:54;29.65;;;20.17;;
13832;SDS011;6987;19.472;-99.276;2023-04-07T02:01:26;31.38;;;19.98;;
13832;SDS011;6987;19.472;-99.276;2023-04-07T02:03:59;28.17;;;21.02;;
13832;SDS011;6987;19.472;-99.276;2023-04-07T02:06:31;27.15;;;17.77;;
13832;SDS011;6987;19.472;-99.276;2023-04-07T02:09:06;23.02;;;18.50;;
13832;SDS011;6987;19.472;-99.276;2023-04-07T02:11:38;23.88;;;18.05;;
13832;SDS011;6987;19.472;-99.276;2023-04-07T02:14:08;29.98;;;18.95;;
13832;SDS011;6987;19.472;-99.276;2023-04-07T02:16:39;26.92;;;20.63;;
13832;SDS011;6987;19.472;-99.276;2023-04-07T02:19:09;32.00;;;19.85;;
13832;SDS011;6987;19.472;-99.276;2023-04-07T02:21:38;27.30;;;18.33;;
13832;SDS011;6987;19.472;-99.276;2023-04-07T02:24:09;24.58;;;17.98;;
13832;SDS011;6987;19.472;-99.276;2023-04-07T02:26:38;20.33;;;17.52;;
13832;SDS011;6987;19.472;-99.276;2023-04-07T02:29:07;29.25;;;18.80;;
13832;SDS011;6987;19.472;-99.276;2023-04-07T02:31:36;23.92;;;19.17;;
13832;SDS011;6987;19.472;-99.276;2023-04-07T02:34:07;23.27;;;18.90;;
13832;SDS011;6987;19.472;-99.276;2023-04-07T02:36:36;33.45;;;21.67;;
13832;SDS011;6987;19.472;-99.276;2023-04-07T02:39:06;39.78;;;24.25;;
13832;SDS011;6987;19.472;-99.276;2023-04-07T02:41:35;33.67;;;23.20;;
13832;SDS011;6987;19.472;-99.276;2023-04-07T02:44:04;30.52;;;21.38;;
13832;SDS011;6987;19.472;-99.276;2023-04-07T02:46:34;23.13;;;16.98;;
13832;SDS011;6987;19.472;-99.276;2023-04-07T02:49:03;33.78;;;21.80;;
13832;SDS011;6987;19.472;-99.276;2023-04-07T02:51:34;36.85;;;20.05;;
13832;SDS011;6987;19.472;-99.276;2023-04-07T02:54:03;29.85;;;20.35;;
13832;SDS011;6987;19.472;-99.276;2023-04-07T02:56:32;25.50;;;18.25;;
13832;SDS011;6987;19.472;-99.276;2023-04-07T02:59:01;22.27;;;16.60;;
13832;SDS011;6987;19.472;-99.276;2023-04-07T03:01:30;24.23;;;17.63;;
13832;SDS011;6987;19.472;-99.276;2023-04-07T03:03:59;24.08;;;18.27;;
13832;SDS011;6987;19.472;-99.276;2023-04-07T03:06:28;22.65;;;17.58;;
13832;SDS011;6987;19.472;-99.276;2023-04-07T03:08:59;24.80;;;17.45;;
13832;SDS011;6987;19.472;-99.276;2023-04-07T03:11:28;26.92;;;17.23;;
13832;SDS011;6987;19.472;-99.276;2023-04-07T03:13:58;25.75;;;17.20;;
13832;SDS011;6987;19.472;-99.276;2023-04-07T03:16:27;22.25;;;17.15;;
13832;SDS011;6987;19.472;-99.276;2023-04-07T03:18:57;22.10;;;16.00;;
13832;SDS011;6987;19.472;-99.276;2023-04-07T03:21:28;18.77;;;16.75;;
13832;SDS011;6987;19.472;-99.276;2023-04-07T03:23:57;27.83;;;17.60;;
13832;SDS011;6987;19.472;-99.276;2023-04-07T03:26:27;21.77;;;16.17;;
13832;SDS011;6987;19.472;-99.276;2023-04-07T03:28:56;24.13;;;17.15;;
13832;SDS011;6987;19.472;-99.276;2023-04-07T03:31:25;26.25;;;16.48;;
13832;SDS011;6987;19.472;-99.276;2023-04-07T03:33:55;26.17;;;17.42;;
13832;SDS011;6987;19.472;-99.276;2023-04-07T03:36:23;21.05;;;15.10;;
13832;SDS011;6987;19.472;-99.276;2023-04-07T03:38:53;23.10;;;16.33;;
13832;SDS011;6987;19.472;-99.276;2023-04-07T03:41:22;25.17;;;18.65;;
13832;SDS011;6987;19.472;-99.276;2023-04-07T03:43:52;23.70;;;17.95;;
13832;SDS011;6987;19.472;-99.276;2023-04-07T03:46:21;30.35;;;17.70;;
13832;SDS011;6987;19.472;-99.276;2023-04-07T03:48:51;25.95;;;18.75;;
13832;SDS011;6987;19.472;-99.276;2023-04-07T03:51:20;22.98;;;17.77;;
13832;SDS011;6987;19.472;-99.276;2023-04-07T03:53:49;22.65;;;18.45;;
13832;SDS011;6987;19.472;-99.276;2023-04-07T03:56:18;24.30;;;17.90;;
13832;SDS011;6987;19.472;-99.276;2023-04-07T03:58:47;22.67;;;17.17;;
13832;SDS011;6987;19.472;-99.276;2023-04-07T04:01:18;18.23;;;15.73;;
13832;SDS011;6987;19.472;-99.276;2023-04-07T04:03:47;23.63;;;17.50;;
13832;SDS011;6987;19.472;-99.276;2023-04-07T04:06:16;20.00;;;16.30;;
13832;SDS011;6987;19.472;-99.276;2023-04-07T04:08:45;21.15;;;16.83;;
13832;SDS011;6987;19.472;-99.276;2023-04-07T04:11:14;22.52;;;18.48;;
13832;SDS011;6987;19.472;-99.276;2023-04-07T04:13:43;20.13;;;16.58;;
13832;SDS011;6987;19.472;-99.276;2023-04-07T04:16:12;22.30;;;16.73;;
13832;SDS011;6987;19.472;-99.276;2023-04-07T04:18:44;19.98;;;17.02;;
13832;SDS011;6987;19.472;-99.276;2023-04-07T04:21:12;19.83;;;16.65;;
13832;SDS011;6987;19.472;-99.276;2023-04-07T04:23:41;19.80;;;15.73;;
13832;SDS011;6987;19.472;-99.276;2023-04-07T04:26:10;20.00;;;16.00;;
13832;SDS011;6987;19.472;-99.276;2023-04-07T04:28:39;20.58;;;16.15;;
13832;SDS011;6987;19.472;-99.276;2023-04-07T04:31:08;17.38;;;15.55;;
13832;SDS011;6987;19.472;-99.276;2023-04-07T04:33:37;17.63;;;15.77;;
13832;SDS011;6987;19.472;-99.276;2023-04-07T04:36:08;16.88;;;15.18;;
13832;SDS011;6987;19.472;-99.276;2023-04-07T04:38:37;16.98;;;15.18;;
13832;SDS011;6987;19.472;-99.276;2023-04-07T04:41:06;21.98;;;15.10;;
13832;SDS011;6987;19.472;-99.276;2023-04-07T04:43:35;19.27;;;15.00;;
13832;SDS011;6987;19.472;-99.276;2023-04-07T04:46:04;18.65;;;16.55;;
13832;SDS011;6987;19.472;-99.276;2023-04-07T04:48:33;23.00;;;16.80;;
13832;SDS011;6987;19.472;-99.276;2023-04-07T04:51:02;21.40;;;18.00;;
13832;SDS011;6987;19.472;-99.276;2023-04-07T04:53:33;22.65;;;17.83;;
13832;SDS011;6987;19.472;-99.276;2023-04-07T04:56:02;25.67;;;18.15;;
13832;SDS011;6987;19.472;-99.276;2023-04-07T04:58:31;25.30;;;19.67;;
13832;SDS011;6987;19.472;-99.276;2023-04-07T05:01:00;26.63;;;20.30;;
13832;SDS011;6987;19.472;-99.276;2023-04-07T05:03:28;30.02;;;20.85;;
13832;SDS011;6987;19.472;-99.276;2023-04-07T05:05:57;24.88;;;20.42;;
13832;SDS011;6987;19.472;-99.276;2023-04-07T05:08:26;31.13;;;20.88;;
13832;SDS011;6987;19.472;-99.276;2023-04-07T05:10:57;27.90;;;19.23;;
13832;SDS011;6987;19.472;-99.276;2023-04-07T05:13:26;26.48;;;18.55;;
13832;SDS011;6987;19.472;-99.276;2023-04-07T05:15:55;22.50;;;17.85;;
13832;SDS011;6987;19.472;-99.276;2023-04-07T05:18:24;22.88;;;19.70;;
13832;SDS011;6987;19.472;-99.276;2023-04-07T05:20:53;21.42;;;18.55;;
13832;SDS011;6987;19.472;-99.276;2023-04-07T05:23:22;24.05;;;18.73;;
13832;SDS011;6987;19.472;-99.276;2023-04-07T05:25:51;25.83;;;18.15;;
13832;SDS011;6987;19.472;-99.276;2023-04-07T05:28:22;20.83;;;18.35;;
13832;SDS011;6987;19.472;-99.276;2023-04-07T05:30:51;23.58;;;19.48;;
13832;SDS011;6987;19.472;-99.276;2023-04-07T05:33:20;33.20;;;19.95;;
13832;SDS011;6987;19.472;-99.276;2023-04-07T05:35:49;25.00;;;19.23;;
13832;SDS011;6987;19.472;-99.276;2023-04-07T05:38:18;21.40;;;17.48;;
13832;SDS011;6987;19.472;-99.276;2023-04-07T05:40:47;20.15;;;18.02;;
13832;SDS011;6987;19.472;-99.276;2023-04-07T05:43:15;21.63;;;18.27;;
13832;SDS011;6987;19.472;-99.276;2023-04-07T05:45:46;22.92;;;17.98;;
13832;SDS011;6987;19.472;-99.276;2023-04-07T05:48:15;22.08;;;18.08;;
13832;SDS011;6987;19.472;-99.276;2023-04-07T05:50:44;23.88;;;17.85;;
13832;SDS011;6987;19.472;-99.276;2023-04-07T05:53:13;21.08;;;17.73;;
13832;SDS011;6987;19.472;-99.276;2023-04-07T05:55:42;21.80;;;19.38;;
13832;SDS011;6987;19.472;-99.276;2023-04-07T05:58:11;22.95;;;19.35;;
13832;SDS011;6987;19.472;-99.276;2023-04-07T06:00:41;26.27;;;18.77;;
13832;SDS011;6987;19.472;-99.276;2023-04-07T06:03:11;25.27;;;19.80;;
13832;SDS011;6987;19.472;-99.276;2023-04-07T06:05:40;27.05;;;20.23;;
13832;SDS011;6987;19.472;-99.276;2023-04-07T06:08:09;24.13;;;20.13;;
13832;SDS011;6987;19.472;-99.276;2023-04-07T06:10:38;24.98;;;19.98;;
13832;SDS011;6987;19.472;-99.276;2023-04-07T06:13:08;25.55;;;20.67;;
13832;SDS011;6987;19.472;-99.276;2023-04-07T06:15:38;23.83;;;19.27;;
13832;SDS011;6987;19.472;-99.276;2023-04-07T06:18:06;25.98;;;19.40;;
13832;SDS011;6987;19.472;-99.276;2023-04-07T06:20:37;24.55;;;19.83;;
13832;SDS011;6987;19.472;-99.276;2023-04-07T06:23:06;21.85;;;19.42;;
13832;SDS011;6987;19.472;-99.276;2023-04-07T06:25:35;24.08;;;19.77;;
13832;SDS011;6987;19.472;-99.276;2023-04-07T06:28:04;27.08;;;21.08;;
13832;SDS011;6987;19.472;-99.276;2023-04-07T06:30:33;30.45;;;20.60;;
13832;SDS011;6987;19.472;-99.276;2023-04-07T06:33:02;26.38;;;21.15;;
13832;SDS011;6987;19.472;-99.276;2023-04-07T06:35:31;26.35;;;20.23;;
13832;SDS011;6987;19.472;-99.276;2023-04-07T06:38:02;24.88;;;21.30;;
13832;SDS011;6987;19.472;-99.276;2023-04-07T06:40:32;30.60;;;21.98;;
13832;SDS011;6987;19.472;-99.276;2023-04-07T06:43:01;29.95;;;20.70;;
13832;SDS011;6987;19.472;-99.276;2023-04-07T06:45:31;29.88;;;22.48;;
13832;SDS011;6987;19.472;-99.276;2023-04-07T06:47:59;30.17;;;22.50;;
13832;SDS011;6987;19.472;-99.276;2023-04-07T06:50:28;36.38;;;22.00;;
13832;SDS011;6987;19.472;-99.276;2023-04-07T06:52:57;26.75;;;22.15;;
13832;SDS011;6987;19.472;-99.276;2023-04-07T06:55:28;24.88;;;22.10;;
13832;SDS011;6987;19.472;-99.276;2023-04-07T06:57:56;27.48;;;21.45;;
13832;SDS011;6987;19.472;-99.276;2023-04-07T07:00:25;31.15;;;23.92;;
13832;SDS011;6987;19.472;-99.276;2023-04-07T07:02:55;33.45;;;23.10;;
13832;SDS011;6987;19.472;-99.276;2023-04-07T07:05:24;23.98;;;21.10;;
13832;SDS011;6987;19.472;-99.276;2023-04-07T07:07:53;24.02;;;21.17;;
13832;SDS011;6987;19.472;-99.276;2023-04-07T07:10:22;27.95;;;21.15;;
13832;SDS011;6987;19.472;-99.276;2023-04-07T07:12:53;28.00;;;22.08;;
13832;SDS011;6987;19.472;-99.276;2023-04-07T07:15:22;28.15;;;22.50;;
13832;SDS011;6987;19.472;-99.276;2023-04-07T07:17:51;28.63;;;23.08;;
13832;SDS011;6987;19.472;-99.276;2023-04-07T07:20:19;28.70;;;22.85;;
13832;SDS011;6987;19.472;-99.276;2023-04-07T07:22:50;26.33;;;20.38;;
13832;SDS011;6987;19.472;-99.276;2023-04-07T07:25:19;29.75;;;21.98;;
13832;SDS011;6987;19.472;-99.276;2023-04-07T07:27:48;23.65;;;19.35;;
13832;SDS011;6987;19.472;-99.276;2023-04-07T07:30:20;23.88;;;19.67;;
13832;SDS011;6987;19.472;-99.276;2023-04-07T07:32:50;24.88;;;19.73;;
13832;SDS011;6987;19.472;-99.276;2023-04-07T07:35:20;28.30;;;21.90;;
13832;SDS011;6987;19.472;-99.276;2023-04-07T07:37:49;30.77;;;21.20;;
13832;SDS011;6987;19.472;-99.276;2023-04-07T07:40:18;26.08;;;19.35;;
13832;SDS011;6987;19.472;-99.276;2023-04-07T07:42:47;26.52;;;20.63;;
13832;SDS011;6987;19.472;-99.276;2023-04-07T07:45:16;27.77;;;18.65;;
13832;SDS011;6987;19.472;-99.276;2023-04-07T07:47:47;25.38;;;18.17;;
13832;SDS011;6987;19.472;-99.276;2023-04-07T07:50:16;23.77;;;17.42;;
13832;SDS011;6987;19.472;-99.276;2023-04-07T07:52:45;29.08;;;18.25;;
13832;SDS011;6987;19.472;-99.276;2023-04-07T07:55:14;24.23;;;18.08;;
13832;SDS011;6987;19.472;-99.276;2023-04-07T07:57:43;21.67;;;18.08;;
13832;SDS011;6987;19.472;-99.276;2023-04-07T08:00:12;24.15;;;18.02;;
13832;SDS011;6987;19.472;-99.276;2023-04-07T08:02:41;18.90;;;16.98;;
13832;SDS011;6987;19.472;-99.276;2023-04-07T08:05:12;22.77;;;17.23;;
13832;SDS011;6987;19.472;-99.276;2023-04-07T08:07:41;27.15;;;20.02;;
13832;SDS011;6987;19.472;-99.276;2023-04-07T08:10:11;22.30;;;18.38;;
13832;SDS011;6987;19.472;-99.276;2023-04-07T08:12:41;25.15;;;20.13;;
13832;SDS011;6987;19.472;-99.276;2023-04-07T08:15:10;23.70;;;19.38;;
13832;SDS011;6987;19.472;-99.276;2023-04-07T08:17:39;34.15;;;19.55;;
13832;SDS011;6987;19.472;-99.276;2023-04-07T08:20:08;26.00;;;18.70;;
13832;SDS011;6987;19.472;-99.276;2023-04-07T08:22:39;24.17;;;17.90;;
13832;SDS011;6987;19.472;-99.276;2023-04-07T08:25:08;22.52;;;19.70;;
13832;SDS011;6987;19.472;-99.276;2023-04-07T08:27:37;22.52;;;19.27;;
13832;SDS011;6987;19.472;-99.276;2023-04-07T08:30:07;25.25;;;19.13;;
13832;SDS011;6987;19.472;-99.276;2023-04-07T08:32:36;25.38;;;20.30;;
13832;SDS011;6987;19.472;-99.276;2023-04-07T08:35:06;24.38;;;19.70;;
13832;SDS011;6987;19.472;-99.276;2023-04-07T08:37:36;23.60;;;20.02;;
13832;SDS011;6987;19.472;-99.276;2023-04-07T08:40:09;26.90;;;19.73;;
13832;SDS011;6987;19.472;-99.276;2023-04-07T08:42:39;29.63;;;20.33;;
13832;SDS011;6987;19.472;-99.276;2023-04-07T08:45:08;26.67;;;20.27;;
13832;SDS011;6987;19.472;-99.276;2023-04-07T08:47:39;29.35;;;20.67;;
13832;SDS011;6987;19.472;-99.276;2023-04-07T08:50:08;25.42;;;19.83;;
13832;SDS011;6987;19.472;-99.276;2023-04-07T08:52:40;23.70;;;19.95;;
13832;SDS011;6987;19.472;-99.276;2023-04-07T08:55:13;25.27;;;20.42;;
13832;SDS011;6987;19.472;-99.276;2023-04-07T08:57:43;28.38;;;20.92;;
13832;SDS011;6987;19.472;-99.276;2023-04-07T09:00:12;27.65;;;20.77;;
13832;SDS011;6987;19.472;-99.276;2023-04-07T09:02:41;28.95;;;20.55;;
13832;SDS011;6987;19.472;-99.276;2023-04-07T09:05:12;29.70;;;20.52;;
13832;SDS011;6987;19.472;-99.276;2023-04-07T09:07:42;30.83;;;22.30;;
13832;SDS011;6987;19.472;-99.276;2023-04-07T09:10:13;23.23;;;19.63;;
13832;SDS011;6987;19.472;-99.276;2023-04-07T09:12:43;27.77;;;20.90;;
13832;SDS011;6987;19.472;-99.276;2023-04-07T09:15:12;34.45;;;22.10;;
13832;SDS011;6987;19.472;-99.276;2023-04-07T09:17:41;29.27;;;20.42;;
13832;SDS011;6987;19.472;-99.276;2023-04-07T09:20:11;22.73;;;20.33;;
13832;SDS011;6987;19.472;-99.276;2023-04-07T09:22:41;22.73;;;18.98;;
13832;SDS011;6987;19.472;-99.276;2023-04-07T09:25:14;26.40;;;19.77;;
13832;SDS011;6987;19.472;-99.276;2023-04-07T09:30:27;23.70;;;20.83;;
13832;SDS011;6987;19.472;-99.276;2023-04-07T09:32:57;24.60;;;20.23;;
13832;SDS011;6987;19.472;-99.276;2023-04-07T09:35:27;24.73;;;19.45;;
13832;SDS011;6987;19.472;-99.276;2023-04-07T09:38:02;23.67;;;19.33;;
13832;SDS011;6987;19.472;-99.276;2023-04-07T09:40:34;22.73;;;20.33;;
13832;SDS011;6987;19.472;-99.276;2023-04-07T09:43:04;28.17;;;19.30;;
13832;SDS011;6987;19.472;-99.276;2023-04-07T09:45:33;24.40;;;18.90;;
13832;SDS011;6987;19.472;-99.276;2023-04-07T09:48:06;25.77;;;19.90;;
13832;SDS011;6987;19.472;-99.276;2023-04-07T09:50:38;28.15;;;20.70;;
13832;SDS011;6987;19.472;-99.276;2023-04-07T09:53:10;28.95;;;20.42;;
13832;SDS011;6987;19.472;-99.276;2023-04-07T09:55:41;22.02;;;19.10;;
13832;SDS011;6987;19.472;-99.276;2023-04-07T09:58:11;25.48;;;17.98;;
13832;SDS011;6987;19.472;-99.276;2023-04-07T10:00:41;24.73;;;19.50;;
13832;SDS011;6987;19.472;-99.276;2023-04-07T10:03:10;20.17;;;17.95;;
13832;SDS011;6987;19.472;-99.276;2023-04-07T10:05:39;24.38;;;19.05;;
13832;SDS011;6987;19.472;-99.276;2023-04-07T10:08:08;21.80;;;17.75;;
13832;SDS011;6987;19.472;-99.276;2023-04-07T10:10:41;23.48;;;18.95;;
13832;SDS011;6987;19.472;-99.276;2023-04-07T10:13:11;27.23;;;20.00;;
13832;SDS011;6987;19.472;-99.276;2023-04-07T10:15:40;23.08;;;18.38;;
13832;SDS011;6987;19.472;-99.276;2023-04-07T10:18:09;19.65;;;17.50;;
13832;SDS011;6987;19.472;-99.276;2023-04-07T10:20:38;24.38;;;17.48;;
13832;SDS011;6987;19.472;-99.276;2023-04-07T10:23:09;23.00;;;18.17;;
13832;SDS011;6987;19.472;-99.276;2023-04-07T10:25:43;20.98;;;17.60;;
13832;SDS011;6987;19.472;-99.276;2023-04-07T10:28:13;22.60;;;18.25;;
13832;SDS011;6987;19.472;-99.276;2023-04-07T10:30:44;23.75;;;17.67;;
13832;SDS011;6987;19.472;-99.276;2023-04-07T10:33:12;20.90;;;18.02;;
13832;SDS011;6987;19.472;-99.276;2023-04-07T10:38:30;24.67;;;18.77;;
13832;SDS011;6987;19.472;-99.276;2023-04-07T10:41:01;20.08;;;17.77;;
13832;SDS011;6987;19.472;-99.276;2023-04-07T10:43:51;21.10;;;17.85;;
13832;SDS011;6987;19.472;-99.276;2023-04-07T10:46:20;19.25;;;16.35;;
13832;SDS011;6987;19.472;-99.276;2023-04-07T10:49:02;21.15;;;17.20;;
13832;SDS011;6987;19.472;-99.276;2023-04-07T10:51:36;24.38;;;17.88;;
13832;SDS011;6987;19.472;-99.276;2023-04-07T10:54:14;21.45;;;17.65;;
13832;SDS011;6987;19.472;-99.276;2023-04-07T10:59:35;21.85;;;16.20;;
13832;SDS011;6987;19.472;-99.276;2023-04-07T11:04:51;28.33;;;18.45;;
13832;SDS011;6987;19.472;-99.276;2023-04-07T11:07:22;24.35;;;16.05;;
13832;SDS011;6987;19.472;-99.276;2023-04-07T11:10:10;23.85;;;16.70;;
13832;SDS011;6987;19.472;-99.276;2023-04-07T11:12:40;22.65;;;18.35;;
13832;SDS011;6987;19.472;-99.276;2023-04-07T11:15:18;23.20;;;17.08;;
13832;SDS011;6987;19.472;-99.276;2023-04-07T11:20:39;21.17;;;16.83;;
13832;SDS011;6987;19.472;-99.276;2023-04-07T11:23:08;21.05;;;16.42;;
13832;SDS011;6987;19.472;-99.276;2023-04-07T11:25:37;19.50;;;16.20;;
13832;SDS011;6987;19.472;-99.276;2023-04-07T11:28:08;19.98;;;15.95;;
13832;SDS011;6987;19.472;-99.276;2023-04-07T11:30:43;28.83;;;17.60;;
13832;SDS011;6987;19.472;-99.276;2023-04-07T11:33:17;16.80;;;14.82;;
13832;SDS011;6987;19.472;-99.276;2023-04-07T11:35:47;22.27;;;16.38;;
13832;SDS011;6987;19.472;-99.276;2023-04-07T11:38:17;18.60;;;16.30;;
13832;SDS011;6987;19.472;-99.276;2023-04-07T11:40:46;17.77;;;15.95;;
13832;SDS011;6987;19.472;-99.276;2023-04-07T11:43:15;21.73;;;16.23;;
13832;SDS011;6987;19.472;-99.276;2023-04-07T11:45:49;20.27;;;16.02;;
13832;SDS011;6987;19.472;-99.276;2023-04-07T11:48:31;20.95;;;16.33;;
13832;SDS011;6987;19.472;-99.276;2023-04-07T11:51:01;21.23;;;17.48;;
13832;SDS011;6987;19.472;-99.276;2023-04-07T11:53:30;18.48;;;15.85;;
13832;SDS011;6987;19.472;-99.276;2023-04-07T11:56:03;20.10;;;15.77;;
13832;SDS011;6987;19.472;-99.276;2023-04-07T11:58:32;18.55;;;16.35;;
13832;SDS011;6987;19.472;-99.276;2023-04-07T12:01:03;24.63;;;15.60;;
13832;SDS011;6987;19.472;-99.276;2023-04-07T12:03:33;18.08;;;15.73;;
13832;SDS011;6987;19.472;-99.276;2023-04-07T12:06:03;23.50;;;15.68;;
13832;SDS011;6987;19.472;-99.276;2023-04-07T12:08:39;21.13;;;16.30;;
13832;SDS011;6987;19.472;-99.276;2023-04-07T12:11:09;19.17;;;17.13;;
13832;SDS011;6987;19.472;-99.276;2023-04-07T12:13:38;22.88;;;16.02;;
13832;SDS011;6987;19.472;-99.276;2023-04-07T12:16:09;20.40;;;15.38;;
13832;SDS011;6987;19.472;-99.276;2023-04-07T12:18:39;20.50;;;17.17;;
13832;SDS011;6987;19.472;-99.276;2023-04-07T12:21:08;22.75;;;17.13;;
13832;SDS011;6987;19.472;-99.276;2023-04-07T12:23:37;20.65;;;15.43;;
13832;SDS011;6987;19.472;-99.276;2023-04-07T12:26:06;19.48;;;17.25;;
13832;SDS011;6987;19.472;-99.276;2023-04-07T12:28:36;22.05;;;16.05;;
13832;SDS011;6987;19.472;-99.276;2023-04-07T12:31:05;18.70;;;16.42;;
13832;SDS011;6987;19.472;-99.276;2023-04-07T12:33:36;23.73;;;17.67;;
13832;SDS011;6987;19.472;-99.276;2023-04-07T12:36:06;23.23;;;17.15;;
13832;SDS011;6987;19.472;-99.276;2023-04-07T12:38:35;25.75;;;17.02;;
13832;SDS011;6987;19.472;-99.276;2023-04-07T12:41:04;19.35;;;16.52;;
13832;SDS011;6987;19.472;-99.276;2023-04-07T12:43:33;18.92;;;16.65;;
13832;SDS011;6987;19.472;-99.276;2023-04-07T12:46:02;16.48;;;14.93;;
13832;SDS011;6987;19.472;-99.276;2023-04-07T12:48:31;18.73;;;15.82;;
13832;SDS011;6987;19.472;-99.276;2023-04-07T12:51:03;23.38;;;16.17;;
13832;SDS011;6987;19.472;-99.276;2023-04-07T12:53:31;25.67;;;17.90;;
13832;SDS011;6987;19.472;-99.276;2023-04-07T12:56:01;22.55;;;16.95;;
13832;SDS011;6987;19.472;-99.276;2023-04-07T12:58:30;21.35;;;17.38;;
13832;SDS011;6987;19.472;-99.276;2023-04-07T13:00:59;23.38;;;18.40;;
13832;SDS011;6987;19.472;-99.276;2023-04-07T13:03:28;25.55;;;17.95;;
13832;SDS011;6987;19.472;-99.276;2023-04-07T13:05:57;21.42;;;17.58;;
13832;SDS011;6987;19.472;-99.276;2023-04-07T13:08:32;24.23;;;19.02;;
13832;SDS011;6987;19.472;-99.276;2023-04-07T13:11:01;27.10;;;19.15;;
13832;SDS011;6987;19.472;-99.276;2023-04-07T13:13:30;20.17;;;17.67;;
13832;SDS011;6987;19.472;-99.276;2023-04-07T13:15:59;23.02;;;17.95;;
13832;SDS011;6987;19.472;-99.276;2023-04-07T13:18:28;19.85;;;17.70;;
13832;SDS011;6987;19.472;-99.276;2023-04-07T13:20:57;28.10;;;18.35;;
13832;SDS011;6987;19.472;-99.276;2023-04-07T13:23:26;22.42;;;18.83;;
13832;SDS011;6987;19.472;-99.276;2023-04-07T13:25:57;24.77;;;18.08;;
13832;SDS011;6987;19.472;-99.276;2023-04-07T13:28:26;26.13;;;20.38;;
13832;SDS011;6987;19.472;-99.276;2023-04-07T13:30:55;22.13;;;18.05;;
13832;SDS011;6987;19.472;-99.276;2023-04-07T13:33:24;25.10;;;18.85;;
13832;SDS011;6987;19.472;-99.276;2023-04-07T13:35:53;23.65;;;20.13;;
13832;SDS011;6987;19.472;-99.276;2023-04-07T13:38:23;24.92;;;19.73;;
13832;SDS011;6987;19.472;-99.276;2023-04-07T13:40:52;23.08;;;18.48;;
13832;SDS011;6987;19.472;-99.276;2023-04-07T13:43:22;25.13;;;19.58;;
13832;SDS011;6987;19.472;-99.276;2023-04-07T13:45:55;25.58;;;18.90;;
13832;SDS011;6987;19.472;-99.276;2023-04-07T13:48:26;23.88;;;18.80;;
13832;SDS011;6987;19.472;-99.276;2023-04-07T13:50:55;28.02;;;19.17;;
13832;SDS011;6987;19.472;-99.276;2023-04-07T13:53:25;27.50;;;18.90;;
13832;SDS011;6987;19.472;-99.276;2023-04-07T13:55:54;25.15;;;19.58;;
13832;SDS011;6987;19.472;-99.276;2023-04-07T13:58:24;21.48;;;17.95;;
13832;SDS011;6987;19.472;-99.276;2023-04-07T14:00:54;27.42;;;19.83;;
13832;SDS011;6987;19.472;-99.276;2023-04-07T14:03:23;24.15;;;19.60;;
13832;SDS011;6987;19.472;-99.276;2023-04-07T14:05:52;25.88;;;20.42;;
13832;SDS011;6987;19.472;-99.276;2023-04-07T14:08:25;24.45;;;20.70;;
13832;SDS011;6987;19.472;-99.276;2023-04-07T14:10:54;30.38;;;23.80;;
13832;SDS011;6987;19.472;-99.276;2023-04-07T14:13:25;25.05;;;20.77;;
13832;SDS011;6987;19.472;-99.276;2023-04-07T14:15:54;27.02;;;22.80;;
13832;SDS011;6987;19.472;-99.276;2023-04-07T14:18:23;30.73;;;23.85;;
13832;SDS011;6987;19.472;-99.276;2023-04-07T14:20:53;31.92;;;23.45;;
13832;SDS011;6987;19.472;-99.276;2023-04-07T14:23:21;33.22;;;26.42;;
13832;SDS011;6987;19.472;-99.276;2023-04-07T14:25:51;35.47;;;25.83;;
13832;SDS011;6987;19.472;-99.276;2023-04-07T14:28:20;34.60;;;25.38;;
13832;SDS011;6987;19.472;-99.276;2023-04-07T14:30:50;36.92;;;24.83;;
13832;SDS011;6987;19.472;-99.276;2023-04-07T14:33:20;38.30;;;26.95;;
13832;SDS011;6987;19.472;-99.276;2023-04-07T14:35:48;32.20;;;26.15;;
13832;SDS011;6987;19.472;-99.276;2023-04-07T14:38:18;34.83;;;27.20;;